CST,Max TemperatureF,Mean TemperatureF,Min TemperatureF,Max Dew PointF,MeanDew PointF,Min DewpointF,Max Humidity, Mean Humidity, Min Humidity, Max Sea Level PressureIn, Mean Sea Level PressureIn, Min Sea Level PressureIn, Max VisibilityMiles, Mean VisibilityMiles, Min VisibilityMiles, Max Wind SpeedMPH, Mean Wind SpeedMPH, Max Gust SpeedMPH,PrecipitationIn, CloudCover, Events, WindDirDegrees
2013-12-1,42,33,24,29,27,22,93,79,58,30.15,30.06,29.93,10,8,4,8,4,,0.00,2,,359
2013-12-2,45,38,31,36,31,28,95,82,68,29.92,29.72,29.59,7,5,2,18,9,24,0.00,5,Rain,129
2013-12-3,46,39,32,43,36,32,97,94,84,29.64,29.59,29.53,5,1,0,12,6,,0.00,6,Fog-Rain-Snow,117
2013-12-4,44,32,20,43,33,15,98,93,78,29.90,29.63,29.48,10,4,0,24,6,30,0.00,8,Fog-Rain-Snow,279
2013-12-5,20,16,11,15,7,3,80,70,59,30.36,30.18,29.91,10,10,10,25,19,33,0.00,2,Snow,305
2013-12-6,14,8,3,3,0,-4,80,67,50,30.65,30.49,30.36,10,10,10,16,13,18,0.00,3,,327
2013-12-7,14,6,-2,2,-3,-8,80,66,44,30.77,30.65,30.50,10,10,10,14,8,,0.00,1,,7
2013-12-8,18,14,11,16,11,1,93,80,62,30.51,30.18,30.01,10,5,1,17,9,23,0.00,8,Snow,101
2013-12-9,16,5,-6,13,-3,-13,88,75,57,30.29,30.21,30.05,10,10,5,22,11,25,0.00,1,Snow,272
2013-12-10,21,11,1,13,7,-6,77,67,51,30.24,30.16,30.02,10,10,10,26,13,36,0.00,4,,250
2013-12-11,20,8,-4,14,0,-11,86,72,57,30.62,30.49,30.20,10,10,2,20,7,25,0.00,2,Snow,325
2013-12-12,26,11,-4,16,6,-10,82,72,59,30.54,30.33,30.15,10,10,5,20,8,24,0.00,1,,216
2013-12-13,33,23,13,26,19,9,90,83,71,30.14,30.02,29.95,10,7,3,17,6,21,0.00,3,Snow,96
2013-12-14,25,18,12,23,17,9,91,85,78,30.15,30.07,29.99,10,7,4,22,14,23,0.00,7,Snow,344
2013-12-15,18,14,10,12,8,5,84,75,66,30.14,30.09,30.04,10,10,5,17,8,24,0.00,7,Snow,343
2013-12-16,24,18,13,21,15,10,91,86,82,30.12,30.06,29.98,10,6,2,13,7,16,0.00,7,,129
2013-12-17,36,26,15,27,17,11,92,72,44,30.22,30.14,30.07,10,9,5,32,10,41,0.00,2,,276
2013-12-18,49,32,15,31,22,10,90,69,40,30.19,29.91,29.77,10,10,10,23,9,30,0.00,0,,189
2013-12-19,38,34,30,32,31,27,96,89,79,29.84,29.78,29.73,10,8,2,16,6,17,0.01,4,Rain,56
2013-12-20,31,26,22,30,25,20,96,94,89,29.89,29.83,29.75,10,4,1,15,11,,0.01,8,Rain,346
2013-12-21,27,24,21,26,22,19,95,91,89,29.89,29.80,29.69,7,5,1,15,7,,0.01,8,Snow,5
2013-12-22,26,16,7,25,17,2,94,86,79,30.30,29.98,29.70,10,7,1,20,14,25,0.01,8,Snow,330
2013-12-23,6,-4,-13,1,-9,-19,81,71,56,30.56,30.47,30.30,10,10,10,20,13,20,0.00,2,,287
2013-12-24,16,-2,-20,13,-8,-26,84,71,55,30.56,30.42,30.22,10,10,7,18,8,20,0.00,4,Snow,173
2013-12-25,30,22,13,27,20,10,94,87,76,30.26,30.21,30.16,10,7,3,20,10,24,0.00,7,,258
2013-12-26,36,24,11,28,19,8,91,80,65,30.25,30.18,30.09,10,10,10,17,6,21,0.00,2,,226
2013-12-27,41,27,13,29,22,11,93,77,58,30.27,30.19,30.10,10,10,5,16,7,18,0.00,0,,233
2013-12-28,46,39,32,32,29,27,85,71,51,30.10,29.94,29.83,10,10,10,25,11,31,0.00,0,,216
2013-12-29,32,16,0,29,4,-9,90,74,58,30.32,30.16,29.88,10,10,7,31,22,38,0.00,5,Snow,323
2013-12-30,14,5,-4,11,0,-11,89,76,65,30.32,30.24,30.14,10,8,2,12,3,,0.00,6,Snow,158
2013-12-31,17,8,0,11,5,-4,89,82,74,30.32,30.24,30.15,10,9,2,17,6,21,0.00,3,Snow,40